Time;durP1;ratioP1;P1;durP2;ratioP2;P2;SDS_P1;SDS_P2;PMS_P1;PMS_P2;Temp;Humidity;BMP_temperature;BMP_pressure;BME280_temperature;BME280_humidity;BME280_pressure;Samples;Min_cycle;Max_cycle;Signal;HPM_P1;HPM_P2
2023/07/20 08:49:20;;;;;;;2.35;1.00;;;;;;;18.12;74.43;101380.78;5069430;28;20397;-66
2023/07/20 08:51:46;;;;;;;2.28;1.00;;;;;;;18.23;76.65;101379.75;5068464;28;20037;-67
2023/07/20 08:54:13;;;;;;;3.38;1.23;;;;;;;18.27;80.24;101374.59;5068158;28;20016;-67
2023/07/20 08:56:40;;;;;;;1.92;0.90;;;;;;;18.37;79.32;101366.44;5069585;28;20035;-67
2023/07/20 08:59:07;;;;;;;1.48;0.93;;;;;;;18.45;80.89;101378.81;5069789;28;20051;-67
2023/07/20 09:01:35;;;;;;;2.20;1.20;;;;;;;18.52;76.32;101373.91;5067162;28;20075;-67
2023/07/20 09:04:01;;;;;;;2.63;0.93;;;;;;;18.71;76.81;101379.78;5069809;28;20036;-67
2023/07/20 09:06:27;;;;;;;1.38;0.90;;;;;;;18.80;74.25;101371.88;5069423;28;20380;-67
2023/07/20 09:08:52;;;;;;;2.55;0.70;;;;;;;18.93;71.72;101376.88;5069559;28;20082;-67
2023/07/20 09:11:17;;;;;;;1.35;0.93;;;;;;;18.98;70.05;101372.50;5069421;28;20368;-67
2023/07/20 09:13:43;;;;;;;1.08;0.65;;;;;;;19.03;69.92;101375.28;5069866;28;20102;-67
2023/07/20 09:16:09;;;;;;;1.75;0.95;;;;;;;19.09;67.83;101374.19;5069609;28;20064;-67
2023/07/20 09:18:34;;;;;;;2.40;0.70;;;;;;;19.24;67.20;101371.47;5069715;28;20033;-67
2023/07/20 09:21:05;;;;;;;3.22;1.23;;;;;;;19.17;65.09;101370.91;5069345;28;20032;-67
2023/07/20 09:23:34;;;;;;;5.40;1.03;;;;;;;19.22;66.96;101368.19;5069103;28;20029;-67
2023/07/20 09:26:01;;;;;;;1.48;0.73;;;;;;;19.27;63.42;101365.44;5069307;28;20476;-67
2023/07/20 09:28:27;;;;;;;3.42;0.90;;;;;;;19.40;66.12;101366.03;5068937;28;20147;-67
2023/07/20 09:30:55;;;;;;;3.08;0.80;;;;;;;19.19;62.65;101368.75;5067858;28;20039;-67
2023/07/20 09:33:24;;;;;;;4.22;0.90;;;;;;;19.23;66.67;101375.31;5068978;28;20028;-67
2023/07/20 09:35:49;;;;;;;2.10;0.80;;;;;;;19.11;70.73;101366.50;5069149;28;20056;-67
2023/07/20 09:38:15;;;;;;;1.98;1.00;;;;;;;19.09;77.38;101369.53;5068428;28;20078;-67
2023/07/20 09:40:41;;;;;;;3.05;1.15;;;;;;;18.98;76.11;101365.13;5068950;28;20079;-67
2023/07/20 09:43:10;;;;;;;1.90;1.00;;;;;;;18.92;77.38;101371.66;5068969;28;20032;-67
2023/07/20 09:45:39;;;;;;;1.25;1.00;;;;;;;18.82;76.25;101369.66;5068684;28;20068;-67
2023/07/20 09:48:09;;;;;;;1.60;1.00;;;;;;;18.85;75.40;101368.31;5068679;28;20476;-67
2023/07/20 09:50:43;;;;;;;2.08;1.10;;;;;;;18.80;77.05;101371.06;5068536;28;20036;-67
2023/07/20 09:53:15;;;;;;;1.65;1.05;;;;;;;18.74;77.62;101367.44;5068652;28;20461;-67
2023/07/20 09:55:44;;;;;;;2.95;1.10;;;;;;;18.72;76.69;101369.63;5068650;28;20033;-67
2023/07/20 09:58:10;;;;;;;4.05;1.17;;;;;;;18.70;78.59;101360.84;5068522;28;20060;-67
2023/07/20 10:00:41;;;;;;;1.67;0.93;;;;;;;18.71;76.07;101359.75;5052955;28;20272;-67
2023/07/20 10:03:07;;;;;;;2.97;0.87;;;;;;;18.62;73.87;101355.88;5054115;28;20037;-67
2023/07/20 10:05:39;;;;;;;1.00;0.90;;;;;;;18.90;74.41;101354.63;5053834;28;20608;-67
2023/07/20 10:08:11;;;;;;;2.15;0.90;;;;;;;19.04;72.38;101363.22;5055169;28;20095;-67
2023/07/20 10:10:40;;;;;;;2.38;0.90;;;;;;;19.25;68.32;101362.16;5054990;28;20104;-67
2023/07/20 10:13:11;;;;;;;2.45;0.80;;;;;;;19.50;70.44;101352.31;5055082;28;20059;-67
2023/07/20 10:15:43;;;;;;;1.45;0.80;;;;;;;19.66;67.42;101350.41;5054847;28;20032;-67
2023/07/20 10:18:28;;;;;;;;;;;;;;;19.76;73.13;101355.91;5055171;28;20071;-67
2023/07/20 10:20:54;;;;;;;0.95;0.70;;;;;;;19.99;64.05;101351.81;5054994;28;20014;-67
2023/07/20 10:23:21;;;;;;;1.75;0.80;;;;;;;19.94;63.76;101346.34;5054424;28;20465;-67
2023/07/20 10:25:48;;;;;;;1.17;0.90;;;;;;;20.06;63.63;101354.25;5055233;28;20037;-67
2023/07/20 10:28:14;;;;;;;1.83;0.90;;;;;;;20.19;63.28;101342.69;5054742;28;20108;-67
2023/07/20 10:30:40;;;;;;;1.75;0.80;;;;;;;20.15;62.53;101338.03;5054598;28;20632;-67
2023/07/20 10:33:06;;;;;;;1.75;0.90;;;;;;;20.18;62.70;101337.47;5054534;28;20028;-67
2023/07/20 10:36:12;;;;;;;0.93;0.77;;;;;;;20.07;63.76;101344.13;5054584;28;20072;-67
2023/07/20 10:38:43;;;;;;;2.33;0.80;;;;;;;19.82;57.38;101343.03;5054414;28;20029;-67
2023/07/20 10:41:24;;;;;;;2.13;0.90;;;;;;;19.72;58.83;101341.09;5054681;28;20460;-67
2023/07/20 10:43:50;;;;;;;1.08;0.77;;;;;;;19.83;58.38;101334.50;5054698;28;20025;-67
2023/07/20 10:46:39;;;;;;;2.50;0.90;;;;;;;19.91;58.86;101335.06;5054328;28;20376;-67
2023/07/20 10:49:06;;;;;;;2.53;0.88;;;;;;;20.03;58.45;101324.59;5054500;28;20049;-67
2023/07/20 10:51:59;;;;;;;0.77;0.70;;;;;;;20.19;59.70;101331.72;5054255;28;20040;-67
2023/07/20 10:54:24;;;;;;;2.33;0.88;;;;;;;20.32;58.48;101324.81;5053531;28;20041;-67
2023/07/20 10:56:50;;;;;;;2.00;0.90;;;;;;;20.33;58.49;101320.94;5054395;28;20516;-66
2023/07/20 10:59:20;;;;;;;1.42;0.73;;;;;;;20.22;57.52;101321.28;5054342;28;20305;-66
2023/07/20 11:01:47;;;;;;;3.47;0.70;;;;;;;20.22;56.58;101333.09;5051940;28;20025;-67
2023/07/20 11:04:12;;;;;;;1.77;0.77;;;;;;;20.24;56.66;101322.63;5069621;28;20033;-67
2023/07/20 11:06:43;;;;;;;0.70;0.70;;;;;;;20.07;56.44;101324.88;5069384;28;20024;-67
2023/07/20 11:09:15;;;;;;;1.20;0.73;;;;;;;20.04;58.02;101329.00;5054175;28;20151;-67
2023/07/20 11:11:50;;;;;;;1.48;1.00;;;;;;;19.99;57.86;101331.78;5052985;28;20525;-67
2023/07/20 11:14:25;;;;;;;1.73;0.90;;;;;;;19.91;58.03;101327.63;5052990;28;20062;-67
2023/07/20 11:16:52;;;;;;;2.53;0.80;;;;;;;19.91;57.98;101322.13;5053952;28;20033;-67
2023/07/20 11:19:20;;;;;;;1.80;0.70;;;;;;;19.97;59.31;101318.31;5052376;28;20025;-67
2023/07/20 11:21:49;;;;;;;2.25;0.88;;;;;;;20.03;58.06;101323.78;5053864;28;20029;-67
2023/07/20 11:24:15;;;;;;;2.47;0.98;;;;;;;20.13;57.72;101326.53;5053787;28;20025;-67
2023/07/20 11:26:51;;;;;;;2.67;0.93;;;;;;;20.39;58.62;101318.22;5052282;28;20036;-67
2023/07/20 11:29:18;;;;;;;1.80;0.82;;;;;;;20.70;58.07;101317.00;5053631;28;20029;-67
2023/07/20 11:31:45;;;;;;;2.90;0.90;;;;;;;21.09;58.70;101311.84;5053304;28;20029;-67
2023/07/20 11:34:16;;;;;;;1.10;0.73;;;;;;;21.10;56.93;101310.75;5053390;28;20158;-67
2023/07/20 11:36:43;;;;;;;1.30;0.95;;;;;;;20.84;56.19;101303.47;5053063;28;20083;-67
2023/07/20 11:39:10;;;;;;;1.95;1.00;;;;;;;20.58;55.93;101310.16;5053186;28;20102;-67
2023/07/20 11:41:35;;;;;;;2.72;0.80;;;;;;;20.39;56.89;101307.22;5053283;28;20025;-67
2023/07/20 11:44:01;;;;;;;2.38;1.00;;;;;;;20.30;57.84;101310.53;5053430;28;20158;-67
2023/07/20 11:46:29;;;;;;;1.52;1.00;;;;;;;20.26;58.06;101306.72;5053145;28;20025;-67
2023/07/20 11:49:00;;;;;;;2.42;0.80;;;;;;;20.28;58.76;101309.19;5052828;28;20404;-66
2023/07/20 11:51:29;;;;;;;2.17;0.85;;;;;;;20.24;57.84;101308.06;5053485;28;20523;-68
2023/07/20 11:53:56;;;;;;;1.77;1.10;;;;;;;20.23;58.37;101307.25;5053333;28;20029;-67
2023/07/20 11:56:23;;;;;;;1.90;1.08;;;;;;;20.24;57.76;101311.63;5052950;28;20025;-67
2023/07/20 11:58:48;;;;;;;1.65;0.98;;;;;;;20.27;57.06;101302.84;5051796;28;20124;-67
2023/07/20 12:01:14;;;;;;;2.45;0.95;;;;;;;20.24;57.35;101306.16;5050701;28;20102;-67
2023/07/20 12:03:39;;;;;;;2.60;0.90;;;;;;;20.23;56.54;101307.25;5052917;28;20056;-67
2023/07/20 12:06:11;;;;;;;1.20;0.85;;;;;;;20.33;58.40;101298.16;5053052;28;20072;-67
2023/07/20 12:08:41;;;;;;;5.18;1.10;;;;;;;20.40;57.98;101304.19;5052766;28;20056;-67
2023/07/20 12:11:07;;;;;;;2.22;1.23;;;;;;;20.43;57.82;101297.31;5053228;28;20033;-67
2023/07/20 12:13:42;;;;;;;5.38;1.00;;;;;;;20.59;58.24;101292.56;5052671;28;20148;-67
2023/07/20 12:16:14;;;;;;;3.78;0.93;;;;;;;20.81;58.04;101283.97;5052696;28;20079;-67
2023/07/20 12:18:44;;;;;;;3.28;1.20;;;;;;;20.85;56.59;101279.53;5052640;28;20025;-67
2023/07/20 12:21:10;;;;;;;1.10;1.00;;;;;;;20.76;56.04;101283.97;5052791;28;20041;-67
2023/07/20 12:23:38;;;;;;;1.42;0.90;;;;;;;20.68;57.57;101288.13;5052376;28;20059;-67
2023/07/20 12:26:07;;;;;;;1.35;1.17;;;;;;;20.59;58.83;101298.88;5052763;28;20463;-67
2023/07/20 12:28:32;;;;;;;2.80;1.00;;;;;;;20.47;57.85;101292.88;5052460;28;20033;-67
2023/07/20 12:30:57;;;;;;;4.28;0.90;;;;;;;20.34;58.34;101291.56;5052767;28;20091;-67
2023/07/20 12:33:23;;;;;;;2.70;1.15;;;;;;;20.30;59.50;101287.72;5052841;28;20024;-66
2023/07/20 12:35:49;;;;;;;1.58;1.23;;;;;;;20.18;58.37;101274.28;5053036;28;20036;-67
2023/07/20 12:38:15;;;;;;;3.10;1.23;;;;;;;20.17;59.44;101289.16;5052531;28;20028;-67
2023/07/20 12:40:41;;;;;;;2.65;1.08;;;;;;;20.20;61.10;101291.34;5052353;28;20085;-67
2023/07/20 12:43:07;;;;;;;2.85;1.33;;;;;;;20.09;60.23;101292.44;5052310;28;20028;-67
2023/07/20 12:45:32;;;;;;;2.45;0.90;;;;;;;20.14;60.13;101289.69;5052216;28;20029;-67
2023/07/20 12:47:57;;;;;;;3.10;1.25;;;;;;;20.22;59.81;101293.81;5052317;28;20056;-67
2023/07/20 12:50:23;;;;;;;3.03;1.05;;;;;;;20.40;61.27;101289.63;5052484;28;20108;-67
2023/07/20 12:52:48;;;;;;;3.67;0.95;;;;;;;20.40;59.66;101292.38;5052735;28;20025;-67
2023/07/20 12:55:13;;;;;;;2.75;1.13;;;;;;;20.58;60.21;101283.50;5052470;28;20100;-67
2023/07/20 12:57:40;;;;;;;3.25;1.17;;;;;;;20.47;58.65;101292.88;5052207;28;20033;-67
2023/07/20 13:00:09;;;;;;;4.90;1.10;;;;;;;20.50;59.42;101286.81;5052422;28;20036;-67
2023/07/20 13:02:35;;;;;;;2.17;1.10;;;;;;;20.44;58.09;101283.28;5049957;28;20039;-67
2023/07/20 13:05:01;;;;;;;1.70;1.10;;;;;;;20.34;57.42;101281.38;5052329;28;20029;-67
2023/07/20 13:07:31;;;;;;;2.38;1.25;;;;;;;20.28;59.07;101281.69;5051994;28;20029;-67
2023/07/20 13:09:59;;;;;;;4.38;1.50;;;;;;;20.26;59.14;101286.63;5051032;28;20032;-67
2023/07/20 13:12:24;;;;;;;3.33;1.00;;;;;;;20.30;60.84;101276.72;5052222;28;20040;-67
2023/07/20 13:14:49;;;;;;;1.40;1.00;;;;;;;20.27;58.77;101280.84;5052416;28;20025;-67
2023/07/20 13:17:15;;;;;;;2.65;0.93;;;;;;;20.25;58.42;101269.31;5052297;28;20037;-67
2023/07/20 13:19:40;;;;;;;2.13;1.30;;;;;;;20.32;58.27;101264.34;5051664;28;20052;-67
2023/07/20 13:22:05;;;;;;;2.47;1.75;;;;;;;20.49;59.03;101265.94;5051943;28;20438;-67
2023/07/20 13:24:31;;;;;;;1.67;1.02;;;;;;;20.68;58.07;101264.22;5051930;28;20517;-67
2023/07/20 13:26:56;;;;;;;1.73;1.20;;;;;;;20.74;56.85;101266.94;5051907;28;20456;-67
2023/07/20 13:29:21;;;;;;;2.15;0.93;;;;;;;21.03;57.31;101270.63;5050813;28;20578;-67
2023/07/20 13:31:47;;;;;;;3.08;1.10;;;;;;;20.94;56.38;101264.09;5052199;28;20068;-67
2023/07/20 13:34:12;;;;;;;2.30;0.95;;;;;;;21.17;57.79;101256.22;5052541;28;20033;-67
2023/07/20 13:36:37;;;;;;;2.13;0.85;;;;;;;21.59;57.57;101252.03;5055581;28;20377;-67
2023/07/20 13:39:04;;;;;;;3.35;1.17;;;;;;;21.83;55.19;101249.34;5055702;28;20112;-67
2023/07/20 13:41:31;;;;;;;4.82;1.00;;;;;;;22.04;54.03;101238.91;5054332;28;20499;-67
2023/07/20 13:43:57;;;;;;;4.13;1.00;;;;;;;22.28;53.70;101249.94;5055803;28;20104;-67
2023/07/20 13:46:22;;;;;;;2.05;1.48;;;;;;;22.29;51.29;101242.47;5055823;28;20136;-67
2023/07/20 13:48:48;;;;;;;1.95;1.20;;;;;;;22.50;51.29;101243.06;5055150;28;20076;-67
2023/07/20 13:51:13;;;;;;;3.10;1.30;;;;;;;22.81;51.52;101237.94;5061572;28;20396;-67
2023/07/20 13:53:39;;;;;;;4.22;1.35;;;;;;;22.65;50.60;101250.31;5076860;28;20567;-69
2023/07/20 13:56:04;;;;;;;4.65;1.70;;;;;;;22.51;50.12;101250.22;5060361;28;20059;-68
2023/07/20 13:58:30;;;;;;;2.25;1.52;;;;;;;22.33;49.31;101248.22;5055341;28;20033;-68
2023/07/20 14:00:55;;;;;;;2.25;1.45;;;;;;;22.08;50.47;101239.13;5051650;28;20119;-68
2023/07/20 14:03:21;;;;;;;2.83;1.50;;;;;;;21.83;50.88;101248.50;5055480;28;20029;-68
2023/07/20 14:05:46;;;;;;;2.67;1.40;;;;;;;21.75;51.19;101239.75;5055138;28;20032;-68
2023/07/20 14:08:11;;;;;;;3.70;1.35;;;;;;;21.71;50.83;101237.88;5055354;28;20063;-68
2023/07/20 14:10:37;;;;;;;1.88;1.35;;;;;;;21.70;51.62;101230.72;5054950;28;20025;-68
2023/07/20 14:13:03;;;;;;;3.72;1.40;;;;;;;21.59;51.38;101230.03;5055197;28;20029;-68
2023/07/20 14:15:28;;;;;;;2.90;1.50;;;;;;;21.58;52.53;101223.66;5055355;28;20074;-68
2023/07/20 14:17:54;;;;;;;5.38;1.90;;;;;;;21.53;52.34;101217.38;5054896;28;20113;-67
2023/07/20 14:20:19;;;;;;;2.55;1.35;;;;;;;21.61;52.78;101218.72;5055046;28;20032;-68
2023/07/20 14:22:44;;;;;;;3.92;1.17;;;;;;;21.68;52.67;101206.25;5054522;28;20472;-68
2023/07/20 14:25:10;;;;;;;1.98;1.30;;;;;;;21.64;51.93;101210.69;5054917;28;20044;-68
2023/07/20 14:27:35;;;;;;;5.35;1.40;;;;;;;21.74;51.52;101199.56;5054629;28;20112;-67
2023/07/20 14:30:01;;;;;;;2.95;1.13;;;;;;;21.91;50.86;101209.31;5054947;28;20112;-68
2023/07/20 14:32:26;;;;;;;3.17;1.30;;;;;;;22.20;51.98;101203.69;5054865;28;20036;-68
2023/07/20 14:34:52;;;;;;;3.80;1.40;;;;;;;22.20;50.35;101205.66;5054644;28;20029;-68
2023/07/20 14:37:18;;;;;;;3.55;1.23;;;;;;;22.10;50.37;101201.06;5054903;28;20033;-68
2023/07/20 14:39:43;;;;;;;2.05;1.58;;;;;;;22.05;49.76;101204.72;5054256;28;20033;-68
2023/07/20 14:42:09;;;;;;;1.42;1.23;;;;;;;21.98;49.08;101201.47;5054382;28;20079;-68
2023/07/20 14:44:34;;;;;;;3.58;1.38;;;;;;;21.91;49.74;101198.28;5054063;28;20025;-68
2023/07/20 14:46:59;;;;;;;3.47;1.60;;;;;;;21.86;50.08;101199.16;5054295;28;20028;-68
2023/07/20 14:49:26;;;;;;;3.63;1.45;;;;;;;21.64;51.12;101199.66;5054437;28;20421;-67
2023/07/20 14:51:53;;;;;;;3.53;1.60;;;;;;;21.60;52.34;101206.84;5053981;28;20123;-67
2023/07/20 14:54:18;;;;;;;2.15;1.42;;;;;;;21.56;53.52;101203.06;5054441;28;20104;-68
2023/07/20 14:56:53;;;;;;;4.13;1.40;;;;;;;21.41;53.66;101199.31;5054130;28;20170;-68
2023/07/20 14:59:19;;;;;;;1.83;1.60;;;;;;;21.33;53.26;101199.94;5054283;28;20064;-67
2023/07/20 15:01:45;;;;;;;4.25;1.60;;;;;;;21.36;53.84;101193.84;5051572;28;20421;-68
2023/07/20 15:04:12;;;;;;;3.60;1.27;;;;;;;21.31;53.65;101191.13;5054338;28;20107;-68
2023/07/20 15:06:37;;;;;;;3.55;1.58;;;;;;;21.21;53.58;101202.22;5053933;28;20029;-68
2023/07/20 15:09:03;;;;;;;2.13;1.20;;;;;;;21.09;53.36;101201.78;5054009;28;20507;-68
2023/07/20 15:11:29;;;;;;;4.80;1.20;;;;;;;21.06;53.90;101195.75;5052923;28;20033;-68
2023/07/20 15:13:54;;;;;;;2.03;1.08;;;;;;;21.11;54.18;101194.91;5053881;28;20052;-68
2023/07/20 15:16:20;;;;;;;3.00;1.55;;;;;;;21.04;54.17;101192.44;5054009;28;20032;-67
2023/07/20 15:18:45;;;;;;;1.77;1.20;;;;;;;21.02;53.97;101185.63;5054080;28;20041;-68
2023/07/20 15:21:11;;;;;;;2.53;1.50;;;;;;;21.06;54.83;101189.41;5053912;28;20037;-68
2023/07/20 15:23:36;;;;;;;2.90;1.38;;;;;;;20.97;54.04;101194.72;5053706;28;20025;-67
2023/07/20 15:26:02;;;;;;;2.55;1.73;;;;;;;20.93;54.38;101190.09;5054090;28;20087;-68
2023/07/20 15:28:27;;;;;;;2.33;1.73;;;;;;;20.96;54.43;101179.31;5052078;28;20035;-67
2023/07/20 15:31:00;;;;;;;1.42;1.33;;;;;;;20.94;54.71;101178.81;5053198;28;20037;-68
2023/07/20 15:33:25;;;;;;;3.17;1.40;;;;;;;20.89;54.88;101179.66;5042600;28;20060;-68
2023/07/20 15:35:51;;;;;;;3.83;2.33;;;;;;;20.86;54.75;101180.25;5033769;28;20039;-68
2023/07/20 15:38:17;;;;;;;2.70;1.60;;;;;;;20.73;53.82;101171.78;5036049;28;20463;-67
2023/07/20 15:40:46;;;;;;;2.00;1.13;;;;;;;20.77;54.08;101176.44;5041900;28;20029;-70
2023/07/20 15:43:12;;;;;;;2.05;1.48;;;;;;;20.85;54.67;101166.78;5052211;28;20447;-70
2023/07/20 15:45:37;;;;;;;2.63;1.15;;;;;;;20.82;53.43;101167.31;5040550;28;20056;-70
2023/07/20 15:48:03;;;;;;;2.38;1.13;;;;;;;20.75;53.38;101167.66;5033260;28;20054;-67
2023/07/20 15:50:28;;;;;;;4.00;1.30;;;;;;;20.68;53.08;101162.50;5033753;28;20036;-67
2023/07/20 15:52:53;;;;;;;4.28;1.40;;;;;;;20.74;54.72;101165.19;5034184;28;20390;-67
2023/07/20 15:55:19;;;;;;;2.58;1.58;;;;;;;20.76;54.56;101162.97;5033310;28;20396;-68
2023/07/20 15:57:44;;;;;;;2.03;1.23;;;;;;;20.69;54.38;101164.13;5032545;28;20036;-66
